NCAR-RAP Real-Time Weather Data

Output produced by METARs form (19 November 2018  12:14 UTC)
found at http://weather.rap.ucar.edu/surface/
 
Conditions at: KBKV observed 19 November 2018  11:53 UTC
Temperature: 16.7°C (62°F)
Dewpoint: 16.1°C (61°F) [RH = 96%]
Pressure (altimeter): 30.12 inches Hg (1020.1 mb)
[Sea-level pressure: 1019.9 mb]
Winds: calm
Visibility: 10 or more miles (16+ km)
Ceiling: at least 12,000 feet AGL
Clouds: sky clear below 12,000 feet AGL
Present Weather: no significant weather observed at this time
KBKV 191153Z 00000KT 10SM CLR 17/16 A3012 RMK AO2 SLP199 T01670161 10172 20139 53008

Conditions at: KBKV observed 19 November 2018  10:53 UTC
Temperature: 17.2°C (63°F)
Dewpoint: 16.1°C (61°F) [RH = 93%]
Pressure (altimeter): 30.11 inches Hg (1019.7 mb)
[Sea-level pressure: 1019.6 mb]
Winds: from the N (350 degrees) at 5 MPH (4 knots; 2.1 m/s)
Visibility: 10 or more miles (16+ km)
Ceiling: 6000 feet AGL
Clouds: few clouds at 3500 feet AGL
scattered clouds at 5000 feet AGL
overcast cloud deck at 6000 feet AGL
Present Weather: automated observation with no human augmentation;
there may or may not be significant weather present at this time
KBKV 191053Z AUTO 35004KT 10SM FEW035 SCT050 OVC060 17/16 A3011 RMK AO2 SLP196 T01720161

Conditions at: KBKV observed 19 November 2018  09:53 UTC
Temperature: 15.0°C (59°F)
Dewpoint: 14.4°C (58°F) [RH = 96%]
Pressure (altimeter): 30.10 inches Hg (1019.4 mb)
[Sea-level pressure: 1019.2 mb]
Winds: calm
Visibility: 10 or more miles (16+ km)
Ceiling: 4100 feet AGL
Clouds: few clouds at 2600 feet AGL
scattered clouds at 3300 feet AGL
broken clouds at 4100 feet AGL
Present Weather: automated observation with no human augmentation;
there may or may not be significant weather present at this time
KBKV 190953Z AUTO 00000KT 10SM FEW026 SCT033 BKN041 15/14 A3010 RMK AO2 SLP192 T01500144

Conditions at: KBKV observed 19 November 2018  08:53 UTC
Temperature: 16.1°C (61°F)
Dewpoint: 15.0°C (59°F) [RH = 93%]
Pressure (altimeter): 30.10 inches Hg (1019.4 mb)
[Sea-level pressure: 1019.0 mb]
Winds: calm
Visibility: 10 or more miles (16+ km)
Ceiling: at least 12,000 feet AGL
Clouds: sky clear below 12,000 feet AGL
Present Weather: automated observation with no human augmentation;
there may or may not be significant weather present at this time
KBKV 190853Z AUTO 00000KT 10SM CLR 16/15 A3010 RMK AO2 SLP190 T01610150 56005

Conditions at: KBKV observed 19 November 2018  07:53 UTC
Temperature: 15.6°C (60°F)
Dewpoint: 14.4°C (58°F) [RH = 93%]
Pressure (altimeter): 30.10 inches Hg (1019.4 mb)
[Sea-level pressure: 1019.1 mb]
Winds: calm
Visibility: 10 or more miles (16+ km)
Ceiling: at least 12,000 feet AGL
Clouds: sky clear below 12,000 feet AGL
Present Weather: automated observation with no human augmentation;
there may or may not be significant weather present at this time
KBKV 190753Z AUTO 00000KT 10SM CLR 16/14 A3010 RMK AO2 SLP191 T01560144

Conditions at: KBKV observed 19 November 2018  06:53 UTC
Temperature: 15.0°C (59°F)
Dewpoint: 14.4°C (58°F) [RH = 96%]
Pressure (altimeter): 30.11 inches Hg (1019.7 mb)
[Sea-level pressure: 1019.4 mb]
Winds: calm
Visibility: 10 or more miles (16+ km)
Ceiling: at least 12,000 feet AGL
Clouds: few clouds at 7500 feet AGL
Present Weather: automated observation with no human augmentation;
there may or may not be significant weather present at this time
KBKV 190653Z AUTO 00000KT 10SM FEW075 15/14 A3011 RMK AO2 SLP194 T01500144

Conditions at: KBKV observed 19 November 2018  05:53 UTC
Temperature: 15.0°C (59°F)
Dewpoint: 13.9°C (57°F) [RH = 93%]
Pressure (altimeter): 30.11 inches Hg (1019.7 mb)
[Sea-level pressure: 1019.5 mb]
Winds: calm
Visibility: 10 or more miles (16+ km)
Ceiling: at least 12,000 feet AGL
Clouds: scattered clouds at 6500 feet AGL
Present Weather: automated observation with no human augmentation;
there may or may not be significant weather present at this time
KBKV 190553Z AUTO 00000KT 10SM SCT065 15/14 A3011 RMK AO2 SLP195 T01500139 10183 20139 58011

Conditions at: KBKV observed 19 November 2018  04:53 UTC
Temperature: 16.1°C (61°F)
Dewpoint: 14.4°C (58°F) [RH = 90%]
Pressure (altimeter): 30.12 inches Hg (1020.1 mb)
[Sea-level pressure: 1019.9 mb]
Winds: from the N (10 degrees) at 3 MPH (3 knots; 1.6 m/s)
Visibility: 10 or more miles (16+ km)
Ceiling: 6500 feet AGL
Clouds: broken clouds at 6500 feet AGL
Present Weather: automated observation with no human augmentation;
there may or may not be significant weather present at this time
KBKV 190453Z AUTO 01003KT 10SM BKN065 16/14 A3012 RMK AO2 SLP199 T01610144 402670111

Conditions at: KBKV observed 19 November 2018  03:53 UTC
Temperature: 14.4°C (58°F)
Dewpoint: 13.9°C (57°F) [RH = 97%]
Pressure (altimeter): 30.14 inches Hg (1020.7 mb)
[Sea-level pressure: 1020.5 mb]
Winds: calm
Visibility: 10 or more miles (16+ km)
Ceiling: 6500 feet AGL
Clouds: broken clouds at 6500 feet AGL
broken clouds at 8500 feet AGL
Present Weather: automated observation with no human augmentation;
there may or may not be significant weather present at this time
KBKV 190353Z AUTO 00000KT 10SM BKN065 BKN085 14/14 A3014 RMK AO2 SLP205 T01440139

Conditions at: KBKV observed 19 November 2018  02:53 UTC
Temperature: 14.4°C (58°F)
Dewpoint: 13.3°C (56°F) [RH = 93%]
Pressure (altimeter): 30.14 inches Hg (1020.7 mb)
[Sea-level pressure: 1020.6 mb]
Winds: calm
Visibility: 10 or more miles (16+ km)
Ceiling: at least 12,000 feet AGL
Clouds: few clouds at 8000 feet AGL
Present Weather: automated observation with no human augmentation;
there may or may not be significant weather present at this time
KBKV 190253Z AUTO 00000KT 10SM FEW080 14/13 A3014 RMK AO2 SLP206 T01440133 51008

Conditions at: KBKV observed 19 November 2018  01:53 UTC
Temperature: 16.7°C (62°F)
Dewpoint: 15.0°C (59°F) [RH = 90%]
Pressure (altimeter): 30.14 inches Hg (1020.7 mb)
[Sea-level pressure: 1020.5 mb]
Winds: from the N (350 degrees) at 5 MPH (4 knots; 2.1 m/s)
Visibility: 10 or more miles (16+ km)
Ceiling: at least 12,000 feet AGL
Clouds: sky clear below 12,000 feet AGL
Present Weather: no significant weather observed at this time
KBKV 190153Z 35004KT 10SM CLR 17/15 A3014 RMK AO2 SLP205 T01670150

Conditions at: KBKV observed 19 November 2018  00:53 UTC
Temperature: 15.0°C (59°F)
Dewpoint: 13.9°C (57°F) [RH = 93%]
Pressure (altimeter): 30.14 inches Hg (1020.7 mb)
[Sea-level pressure: 1020.4 mb]
Winds: calm
Visibility: 10 or more miles (16+ km)
Ceiling: at least 12,000 feet AGL
Clouds: sky clear below 12,000 feet AGL
Present Weather: no significant weather observed at this time
KBKV 190053Z 00000KT 10SM CLR 15/14 A3014 RMK AO2 SLP204 T01500139

Conditions at: KBKV observed 18 November 2018  23:53 UTC
Temperature: 18.3°C (65°F)
Dewpoint: 15.0°C (59°F) [RH = 81%]
Pressure (altimeter): 30.12 inches Hg (1020.1 mb)
[Sea-level pressure: 1019.7 mb]
Winds: calm
Visibility: 10 or more miles (16+ km)
Ceiling: at least 12,000 feet AGL
Clouds: sky clear below 12,000 feet AGL
Present Weather: no significant weather observed at this time
KBKV 182353Z 00000KT 10SM CLR 18/15 A3012 RMK AO2 SLP197 T01830150 10267 20183 53006

Conditions at: KBKV observed 18 November 2018  22:53 UTC
Temperature: 21.7°C (71°F)
Dewpoint: 15.6°C (60°F) [RH = 68%]
Pressure (altimeter): 30.10 inches Hg (1019.4 mb)
[Sea-level pressure: 1019.2 mb]
Winds: from the NW (320 degrees) at 6 MPH (5 knots; 2.6 m/s)
Visibility: 10 or more miles (16+ km)
Ceiling: at least 12,000 feet AGL
Clouds: sky clear below 12,000 feet AGL
Present Weather: no significant weather observed at this time
KBKV 182253Z 32005KT 10SM CLR 22/16 A3010 RMK AO2 SLP192 T02170156

Conditions at: KBKV observed 18 November 2018  21:53 UTC
Temperature: 25.0°C (77°F)
Dewpoint: 14.4°C (58°F) [RH = 52%]
Pressure (altimeter): 30.10 inches Hg (1019.4 mb)
[Sea-level pressure: 1019.0 mb]
Winds: from the NE (40 degrees) at 3 MPH (3 knots; 1.6 m/s)
Visibility: 10 or more miles (16+ km)
Ceiling: at least 12,000 feet AGL
Clouds: sky clear below 12,000 feet AGL
Present Weather: no significant weather observed at this time
KBKV 182153Z 04003KT 10SM CLR 25/14 A3010 RMK AO2 SLP190 T02500144

Conditions at: KBKV observed 18 November 2018  20:53 UTC
Temperature: 26.1°C (79°F)
Dewpoint: 14.4°C (58°F) [RH = 49%]
Pressure (altimeter): 30.10 inches Hg (1019.4 mb)
[Sea-level pressure: 1019.2 mb]
Winds: from the NNE (20 degrees) at 7 MPH (6 knots; 3.1 m/s)
Visibility: 10 or more miles (16+ km)
Ceiling: at least 12,000 feet AGL
Clouds: sky clear below 12,000 feet AGL
Present Weather: no significant weather observed at this time
KBKV 182053Z 02006KT 10SM CLR 26/14 A3010 RMK AO2 SLP192 T02610144 56017

Conditions at: KBKV observed 18 November 2018  19:53 UTC
Temperature: 26.7°C (80°F)
Dewpoint: 14.4°C (58°F) [RH = 47%]
Pressure (altimeter): 30.10 inches Hg (1019.4 mb)
[Sea-level pressure: 1019.2 mb]
Winds: from the N (360 degrees) at 3 MPH (3 knots; 1.6 m/s)
Visibility: 10 or more miles (16+ km)
Ceiling: at least 12,000 feet AGL
Clouds: scattered clouds at 7500 feet AGL
Present Weather: no significant weather observed at this time
KBKV 181953Z 36003KT 10SM SCT075 27/14 A3010 RMK AO2 SLP192 T02670144

Conditions at: KBKV observed 18 November 2018  18:53 UTC
Temperature: 26.1°C (79°F)
Dewpoint: 15.6°C (60°F) [RH = 52%]
Pressure (altimeter): 30.12 inches Hg (1020.1 mb)
[Sea-level pressure: 1019.9 mb]
Winds: variable direction winds at 6 MPH (5 knots; 2.6 m/s)
Visibility: 10 or more miles (16+ km)
Ceiling: 7500 feet AGL
Clouds: broken clouds at 7500 feet AGL
Present Weather: no significant weather observed at this time
KBKV 181853Z VRB05KT 10SM BKN075 26/16 A3012 RMK AO2 SLP199 T02610156

Conditions at: KBKV observed 18 November 2018  17:53 UTC
Temperature: 25.6°C (78°F)
Dewpoint: 16.1°C (61°F) [RH = 56%]
Pressure (altimeter): 30.15 inches Hg (1021.1 mb)
[Sea-level pressure: 1020.8 mb]
Winds: from the ENE (60 degrees) at 3 MPH (3 knots; 1.6 m/s)
Visibility: 10 or more miles (16+ km)
Ceiling: at least 12,000 feet AGL
Clouds: sky clear below 12,000 feet AGL
Present Weather: no significant weather observed at this time
KBKV 181753Z 06003KT 10SM CLR 26/16 A3015 RMK AO2 SLP208 T02560161 10261 20133 58019

Conditions at: KBKV observed 18 November 2018  16:53 UTC
Temperature: 25.0°C (77°F)
Dewpoint: 16.7°C (62°F) [RH = 60%]
Pressure (altimeter): 30.18 inches Hg (1022.1 mb)
[Sea-level pressure: 1021.8 mb]
Winds: variable direction winds at 3 MPH (3 knots; 1.6 m/s)
Visibility: 10 or more miles (16+ km)
Ceiling: at least 12,000 feet AGL
Clouds: sky clear below 12,000 feet AGL
Present Weather: no significant weather observed at this time
KBKV 181653Z VRB03KT 10SM CLR 25/17 A3018 RMK AO2 SLP218 T02500167

Conditions at: KBKV observed 18 November 2018  15:53 UTC
Temperature: 23.3°C (74°F)
Dewpoint: 16.7°C (62°F) [RH = 66%]
Pressure (altimeter): 30.20 inches Hg (1022.8 mb)
[Sea-level pressure: 1022.5 mb]
Winds: from the E (90 degrees) at 3 MPH (3 knots; 1.6 m/s)
Visibility: 10 or more miles (16+ km)
Ceiling: at least 12,000 feet AGL
Clouds: sky clear below 12,000 feet AGL
Present Weather: no significant weather observed at this time
KBKV 181553Z 09003KT 10SM CLR 23/17 A3020 RMK AO2 SLP225 T02330167

Conditions at: KBKV observed 18 November 2018  14:53 UTC
Temperature: 20.6°C (69°F)
Dewpoint: 16.1°C (61°F) [RH = 75%]
Pressure (altimeter): 30.20 inches Hg (1022.8 mb)
[Sea-level pressure: 1022.7 mb]
Winds: from the NE (50 degrees) at 8 MPH (7 knots; 3.6 m/s)
Visibility: 10 or more miles (16+ km)
Ceiling: at least 12,000 feet AGL
Clouds: sky clear below 12,000 feet AGL
Present Weather: no significant weather observed at this time
KBKV 181453Z 05007KT 10SM CLR 21/16 A3020 RMK AO2 SLP227 T02060161 53010

Conditions at: KBKV observed 18 November 2018  13:53 UTC
Temperature: 18.3°C (65°F)
Dewpoint: 16.1°C (61°F) [RH = 87%]
Pressure (altimeter): 30.19 inches Hg (1022.4 mb)
[Sea-level pressure: 1022.3 mb]
Winds: from the NE (40 degrees) at 6 MPH (5 knots; 2.6 m/s)
Visibility: 10 or more miles (16+ km)
Ceiling: at least 12,000 feet AGL
Clouds: sky clear below 12,000 feet AGL
Present Weather: no significant weather observed at this time
KBKV 181353Z 04005KT 10SM CLR 18/16 A3019 RMK AO2 SLP223 T01830161

Conditions at: KBKV observed 18 November 2018  12:53 UTC
Temperature: 15.6°C (60°F)
Dewpoint: 14.4°C (58°F) [RH = 93%]
Pressure (altimeter): 30.18 inches Hg (1022.1 mb)
[Sea-level pressure: 1022.0 mb]
Winds: from the NNE (30 degrees) at 7 MPH (6 knots; 3.1 m/s)
Visibility: 10 or more miles (16+ km)
Ceiling: at least 12,000 feet AGL
Clouds: sky clear below 12,000 feet AGL
Present Weather: no significant weather observed at this time
KBKV 181253Z 03006KT 10SM CLR 16/14 A3018 RMK AO2 SLP220 T01560144

Conditions at: KBKV observed 18 November 2018  11:53 UTC
Temperature: 13.9°C (57°F)
Dewpoint: 13.3°C (56°F) [RH = 96%]
Pressure (altimeter): 30.17 inches Hg (1021.8 mb)
[Sea-level pressure: 1021.7 mb]
Winds: calm
Visibility: 8 miles (13 km)
Ceiling: at least 12,000 feet AGL
Clouds: sky clear below 12,000 feet AGL
Present Weather: automated observation with no human augmentation;
there may or may not be significant weather present at this time
KBKV 181153Z AUTO 00000KT 8SM CLR 14/13 A3017 RMK AO2 SLP217 T01390133 10139 20122 53011

Conditions at: KBKV observed 18 November 2018  10:53 UTC
Temperature: 13.9°C (57°F)
Dewpoint: 12.8°C (55°F) [RH = 93%]
Pressure (altimeter): 30.15 inches Hg (1021.1 mb)
[Sea-level pressure: 1020.8 mb]
Winds: from the NNE (30 degrees) at 3 MPH (3 knots; 1.6 m/s)
Visibility: 9 miles (14 km)
Ceiling: at least 12,000 feet AGL
Clouds: sky clear below 12,000 feet AGL
Present Weather: automated observation with no human augmentation;
there may or may not be significant weather present at this time
KBKV 181053Z AUTO 03003KT 9SM CLR 14/13 A3015 RMK AO2 SLP208 T01390128

Conditions at: KBKV observed 18 November 2018  09:53 UTC
Temperature: 13.9°C (57°F)
Dewpoint: 13.3°C (56°F) [RH = 96%]
Pressure (altimeter): 30.14 inches Hg (1020.7 mb)
[Sea-level pressure: 1020.5 mb]
Winds: from the NE (40 degrees) at 5 MPH (4 knots; 2.1 m/s)
Visibility: 10 or more miles (16+ km)
Ceiling: at least 12,000 feet AGL
Clouds: sky clear below 12,000 feet AGL
Present Weather: automated observation with no human augmentation;
there may or may not be significant weather present at this time
KBKV 180953Z AUTO 04004KT 10SM CLR 14/13 A3014 RMK AO2 SLP205 T01390133

Conditions at: KBKV observed 18 November 2018  08:53 UTC
Temperature: 13.9°C (57°F)
Dewpoint: 12.8°C (55°F) [RH = 93%]
Pressure (altimeter): 30.14 inches Hg (1020.7 mb)
[Sea-level pressure: 1020.6 mb]
Winds: from the NNE (30 degrees) at 6 MPH (5 knots; 2.6 m/s)
Visibility: 10 or more miles (16+ km)
Ceiling: at least 12,000 feet AGL
Clouds: sky clear below 12,000 feet AGL
Present Weather: automated observation with no human augmentation;
there may or may not be significant weather present at this time
KBKV 180853Z AUTO 03005KT 10SM CLR 14/13 A3014 RMK AO2 SLP206 T01390128 56005

Conditions at: KBKV observed 18 November 2018  07:53 UTC
Temperature: 13.3°C (56°F)
Dewpoint: 12.8°C (55°F) [RH = 97%]
Pressure (altimeter): 30.15 inches Hg (1021.1 mb)
[Sea-level pressure: 1020.7 mb]
Winds: from the NNE (20 degrees) at 5 MPH (4 knots; 2.1 m/s)
Visibility: 10 or more miles (16+ km)
Ceiling: at least 12,000 feet AGL
Clouds: sky clear below 12,000 feet AGL
Present Weather: automated observation with no human augmentation;
there may or may not be significant weather present at this time
KBKV 180753Z AUTO 02004KT 10SM CLR 13/13 A3015 RMK AO2 SLP207 T01330128

Conditions at: KBKV observed 18 November 2018  06:53 UTC
Temperature: 13.9°C (57°F)
Dewpoint: 12.8°C (55°F) [RH = 93%]
Pressure (altimeter): 30.15 inches Hg (1021.1 mb)
[Sea-level pressure: 1020.8 mb]
Winds: from the NNE (20 degrees) at 3 MPH (3 knots; 1.6 m/s)
Visibility: 10 or more miles (16+ km)
Ceiling: at least 12,000 feet AGL
Clouds: sky clear below 12,000 feet AGL
Present Weather: automated observation with no human augmentation;
there may or may not be significant weather present at this time
KBKV 180653Z AUTO 02003KT 10SM CLR 14/13 A3015 RMK AO2 SLP208 T01390128

Conditions at: KBKV observed 18 November 2018  05:53 UTC
Temperature: 13.9°C (57°F)
Dewpoint: 12.8°C (55°F) [RH = 93%]
Pressure (altimeter): 30.16 inches Hg (1021.4 mb)
[Sea-level pressure: 1021.1 mb]
Winds: from the NNE (20 degrees) at 5 MPH (4 knots; 2.1 m/s)
Visibility: 10 or more miles (16+ km)
Ceiling: at least 12,000 feet AGL
Clouds: sky clear below 12,000 feet AGL
Present Weather: automated observation with no human augmentation;
there may or may not be significant weather present at this time
KBKV 180553Z AUTO 02004KT 10SM CLR 14/13 A3016 RMK AO2 SLP211 T01390128 10139 20100 55003

Conditions at: KBKV observed 18 November 2018  04:53 UTC
Temperature: 10.6°C (51°F)
Dewpoint: 10.0°C (50°F) [RH = 96%]
Pressure (altimeter): 30.15 inches Hg (1021.1 mb)
[Sea-level pressure: 1020.9 mb]
Winds: calm
Visibility: 10 or more miles (16+ km)
Ceiling: at least 12,000 feet AGL
Clouds: sky clear below 12,000 feet AGL
Present Weather: automated observation with no human augmentation;
there may or may not be significant weather present at this time
KBKV 180453Z AUTO 00000KT 10SM CLR 11/10 A3015 RMK AO2 SLP209 T01060100 402390022

Conditions at: KBKV observed 18 November 2018  03:53 UTC
Temperature: 10.6°C (51°F)
Dewpoint: 9.4°C (49°F) [RH = 92%]
Pressure (altimeter): 30.16 inches Hg (1021.4 mb)
[Sea-level pressure: 1021.3 mb]
Winds: calm
Visibility: 10 or more miles (16+ km)
Ceiling: at least 12,000 feet AGL
Clouds: sky clear below 12,000 feet AGL
Present Weather: automated observation with no human augmentation;
there may or may not be significant weather present at this time
KBKV 180353Z AUTO 00000KT 10SM CLR 11/09 A3016 RMK AO2 SLP213 T01060094

Conditions at: KBKV observed 18 November 2018  02:53 UTC
Temperature: 11.1°C (52°F)
Dewpoint: 9.4°C (49°F) [RH = 89%]
Pressure (altimeter): 30.17 inches Hg (1021.8 mb)
[Sea-level pressure: 1021.4 mb]
Winds: calm
Visibility: 10 or more miles (16+ km)
Ceiling: at least 12,000 feet AGL
Clouds: sky clear below 12,000 feet AGL
Present Weather: automated observation with no human augmentation;
there may or may not be significant weather present at this time
KBKV 180253Z AUTO 00000KT 10SM CLR 11/09 A3017 RMK AO2 SLP214 T01110094 51003

Conditions at: KBKV observed 18 November 2018  01:53 UTC
Temperature: 11.7°C (53°F)
Dewpoint: 10.6°C (51°F) [RH = 93%]
Pressure (altimeter): 30.17 inches Hg (1021.8 mb)
[Sea-level pressure: 1021.3 mb]
Winds: calm
Visibility: 10 or more miles (16+ km)
Ceiling: at least 12,000 feet AGL
Clouds: sky clear below 12,000 feet AGL
Present Weather: no significant weather observed at this time
KBKV 180153Z 00000KT 10SM CLR 12/11 A3017 RMK AO2 SLP213 T01170106

Conditions at: KBKV observed 18 November 2018  00:53 UTC
Temperature: 12.8°C (55°F)
Dewpoint: 9.4°C (49°F) [RH = 80%]
Pressure (altimeter): 30.16 inches Hg (1021.4 mb)
[Sea-level pressure: 1021.1 mb]
Winds: calm
Visibility: 10 or more miles (16+ km)
Ceiling: at least 12,000 feet AGL
Clouds: sky clear below 12,000 feet AGL
Present Weather: no significant weather observed at this time
KBKV 180053Z 00000KT 10SM CLR 13/09 A3016 RMK AO2 SLP211 T01280094

Conditions at: KBKV observed 17 November 2018  23:53 UTC
Temperature: 13.3°C (56°F)
Dewpoint: 10.0°C (50°F) [RH = 80%]
Pressure (altimeter): 30.16 inches Hg (1021.4 mb)
[Sea-level pressure: 1021.0 mb]
Winds: calm
Visibility: 10 or more miles (16+ km)
Ceiling: at least 12,000 feet AGL
Clouds: sky clear below 12,000 feet AGL
Present Weather: no significant weather observed at this time
KBKV 172353Z 00000KT 10SM CLR 13/10 A3016 RMK AO2 SLP210 T01330100 10239 20122 51009

Conditions at: KBKV observed 17 November 2018  22:53 UTC
Temperature: 17.8°C (64°F)
Dewpoint: 10.0°C (50°F) [RH = 60%]
Pressure (altimeter): 30.15 inches Hg (1021.1 mb)
[Sea-level pressure: 1020.9 mb]
Winds: from the N (360 degrees) at 5 MPH (4 knots; 2.1 m/s)
Visibility: 10 or more miles (16+ km)
Ceiling: at least 12,000 feet AGL
Clouds: sky clear below 12,000 feet AGL
Present Weather: no significant weather observed at this time
KBKV 172253Z 36004KT 10SM CLR 18/10 A3015 RMK AO2 SLP209 T01780100

Conditions at: KBKV observed 17 November 2018  21:53 UTC
Temperature: 21.1°C (70°F)
Dewpoint: 10.0°C (50°F) [RH = 49%]
Pressure (altimeter): 30.14 inches Hg (1020.7 mb)
[Sea-level pressure: 1020.4 mb]
Winds: from the N (10 degrees) at 3 MPH (3 knots; 1.6 m/s)
Visibility: 10 or more miles (16+ km)
Ceiling: at least 12,000 feet AGL
Clouds: sky clear below 12,000 feet AGL
Present Weather: no significant weather observed at this time
KBKV 172153Z 01003KT 10SM CLR 21/10 A3014 RMK AO2 SLP204 T02110100

Conditions at: KBKV observed 17 November 2018  20:53 UTC
Temperature: 23.3°C (74°F)
Dewpoint: 8.3°C (47°F) [RH = 38%]
Pressure (altimeter): 30.13 inches Hg (1020.4 mb)
[Sea-level pressure: 1020.1 mb]
Winds: from the NNE (30 degrees) at 3 MPH (3 knots; 1.6 m/s)
Visibility: 10 or more miles (16+ km)
Ceiling: at least 12,000 feet AGL
Clouds: sky clear below 12,000 feet AGL
Present Weather: no significant weather observed at this time
KBKV 172053Z 03003KT 10SM CLR 23/08 A3013 RMK AO2 SLP201 T02330083 56009

Conditions at: KBKV observed 17 November 2018  19:53 UTC
Temperature: 22.8°C (73°F)
Dewpoint: 7.8°C (46°F) [RH = 38%]
Pressure (altimeter): 30.13 inches Hg (1020.4 mb)
[Sea-level pressure: 1020.1 mb]
Winds: from the ESE (120 degrees) at 7 MPH (6 knots; 3.1 m/s)
Visibility: 10 or more miles (16+ km)
Ceiling: at least 12,000 feet AGL
Clouds: sky clear below 12,000 feet AGL
Present Weather: no significant weather observed at this time
KBKV 171953Z 12006KT 10SM CLR 23/08 A3013 RMK AO2 SLP201 T02280078

Conditions at: KBKV observed 17 November 2018  18:53 UTC
Temperature: 23.3°C (74°F)
Dewpoint: 8.3°C (47°F) [RH = 38%]
Pressure (altimeter): 30.13 inches Hg (1020.4 mb)
[Sea-level pressure: 1020.2 mb]
Winds: from the NNE (30 degrees) at 8 MPH (7 knots; 3.6 m/s)
Visibility: 10 or more miles (16+ km)
Ceiling: at least 12,000 feet AGL
Clouds: sky clear below 12,000 feet AGL
Present Weather: no significant weather observed at this time
KBKV 171853Z 03007KT 10SM CLR 23/08 A3013 RMK AO2 SLP202 T02330083

Conditions at: KBKV observed 17 November 2018  17:53 UTC
Temperature: 22.2°C (72°F)
Dewpoint: 10.6°C (51°F) [RH = 48%]
Pressure (altimeter): 30.16 inches Hg (1021.4 mb)
[Sea-level pressure: 1021.0 mb]
Winds: variable direction winds at 5 MPH (4 knots; 2.1 m/s)
Visibility: 10 or more miles (16+ km)
Ceiling: at least 12,000 feet AGL
Clouds: sky clear below 12,000 feet AGL
Present Weather: no significant weather observed at this time
KBKV 171753Z VRB04KT 10SM CLR 22/11 A3016 RMK AO2 SLP210 T02220106 10222 20028 58025

Conditions at: KBKV observed 17 November 2018  16:53 UTC
Temperature: 20.0°C (68°F)
Dewpoint: 10.6°C (51°F) [RH = 55%]
Pressure (altimeter): 30.20 inches Hg (1022.8 mb)
[Sea-level pressure: 1022.4 mb]
Winds: from the ESE (110 degrees) at 7 MPH (6 knots; 3.1 m/s)
Visibility: 10 or more miles (16+ km)
Ceiling: at least 12,000 feet AGL
Clouds: sky clear below 12,000 feet AGL
Present Weather: no significant weather observed at this time
KBKV 171653Z 11006KT 10SM CLR 20/11 A3020 RMK AO2 SLP224 T02000106

Conditions at: KBKV observed 17 November 2018  15:53 UTC
Temperature: 18.3°C (65°F)
Dewpoint: 10.0°C (50°F) [RH = 58%]
Pressure (altimeter): 30.21 inches Hg (1023.1 mb)
[Sea-level pressure: 1022.8 mb]
Winds: from the NNE (30 degrees) at 9 MPH (8 knots; 4.2 m/s)
Visibility: 10 or more miles (16+ km)
Ceiling: at least 12,000 feet AGL
Clouds: sky clear below 12,000 feet AGL
Present Weather: no significant weather observed at this time
KBKV 171553Z 03008KT 10SM CLR 18/10 A3021 RMK AO2 SLP228 T01830100

Conditions at: KBKV observed 17 November 2018  14:53 UTC
Temperature: 15.6°C (60°F)
Dewpoint: 7.8°C (46°F) [RH = 60%]
Pressure (altimeter): 30.23 inches Hg (1023.8 mb)
[Sea-level pressure: 1023.5 mb]
Winds: from the NE (40 degrees) at 10 MPH (9 knots; 4.7 m/s)
Visibility: 10 or more miles (16+ km)
Ceiling: at least 12,000 feet AGL
Clouds: sky clear below 12,000 feet AGL
Present Weather: no significant weather observed at this time
KBKV 171453Z 04009KT 10SM CLR 16/08 A3023 RMK AO2 SLP235 T01560078 51007

Conditions at: KBKV observed 17 November 2018  13:53 UTC
Temperature: 12.2°C (54°F)
Dewpoint: 6.7°C (44°F) [RH = 69%]
Pressure (altimeter): 30.23 inches Hg (1023.8 mb)
[Sea-level pressure: 1023.5 mb]
Winds: from the NNE (30 degrees) at 12 MPH (10 knots; 5.2 m/s)
Visibility: 10 or more miles (16+ km)
Ceiling: at least 12,000 feet AGL
Clouds: sky clear below 12,000 feet AGL
Present Weather: no significant weather observed at this time
KBKV 171353Z 03010KT 10SM CLR 12/07 A3023 RMK AO2 SLP235 T01220067

Conditions at: KBKV observed 17 November 2018  12:53 UTC
Temperature: 6.1°C (43°F)
Dewpoint: 5.6°C (42°F) [RH = 97%]
Pressure (altimeter): 30.23 inches Hg (1023.8 mb)
[Sea-level pressure: 1023.4 mb]
Winds: calm
Visibility: 10 or more miles (16+ km)
Ceiling: at least 12,000 feet AGL
Clouds: sky clear below 12,000 feet AGL
Present Weather: no significant weather observed at this time
KBKV 171253Z 00000KT 10SM CLR 06/06 A3023 RMK AO2 SLP234 T00610056